Time,TemperatureF,DewpointF,PressureIn,WindDirection,WindDirectionDegrees,WindSpeedMPH,WindSpeedGustMPH,Humidity,HourlyPrecipIn,Conditions,Clouds,dailyrainin,SoftwareType,DateUTC
2013-04-19 00:01:00,50.0,47.1,30.24,West,276,11.0,16.0,90,0.00,,,0.00,meteohub,2013-04-19 04:01:00,
2013-04-19 00:02:00,50.0,47.1,30.24,WNW,297,9.0,16.0,90,0.00,,,0.00,meteohub,2013-04-19 04:02:00,
2013-04-19 00:03:00,50.2,47.3,30.24,WNW,292,12.0,16.0,90,0.00,,,0.00,meteohub,2013-04-19 04:03:00,
2013-04-19 00:06:00,50.2,47.3,30.24,WSW,248,8.0,16.0,90,0.00,,,0.00,meteohub,2013-04-19 04:06:00,
2013-04-19 00:11:00,50.2,47.7,30.24,WSW,257,11.0,16.0,91,0.00,,,0.00,meteohub,2013-04-19 04:11:00,
2013-04-19 00:16:00,50.4,47.8,30.24,WSW,256,7.0,15.0,91,0.00,,,0.00,meteohub,2013-04-19 04:16:00,
2013-04-19 00:21:00,50.4,47.8,30.23,West,272,11.0,15.0,91,0.00,,,0.00,meteohub,2013-04-19 04:21:00,
2013-04-19 00:27:00,50.5,48.0,30.23,WSW,257,7.0,15.0,91,0.00,,,0.00,meteohub,2013-04-19 04:27:00,
2013-04-19 00:32:00,50.5,48.0,30.23,WNW,287,6.0,15.0,91,0.00,,,0.00,meteohub,2013-04-19 04:32:00,
2013-04-19 00:37:00,50.5,48.0,30.23,West,264,7.0,13.0,91,0.00,,,0.00,meteohub,2013-04-19 04:37:00,
2013-04-19 00:42:00,50.5,48.0,30.23,West,267,6.0,13.0,91,0.00,,,0.00,meteohub,2013-04-19 04:42:00,
2013-04-19 00:47:00,50.7,48.2,30.23,WNW,287,7.0,14.0,91,0.00,,,0.00,meteohub,2013-04-19 04:47:00,
2013-04-19 00:52:00,50.7,48.6,30.22,West,279,12.0,14.0,92,0.00,,,0.00,meteohub,2013-04-19 04:52:00,
2013-04-19 00:57:00,50.7,48.6,30.22,West,269,14.0,15.0,92,0.00,,,0.00,meteohub,2013-04-19 04:57:00,
2013-04-19 01:02:00,50.7,48.6,30.22,WNW,283,9.0,15.0,92,0.00,,,0.00,meteohub,2013-04-19 05:02:00,
2013-04-19 01:07:00,50.7,48.6,30.22,West,280,7.0,15.0,92,0.00,,,0.00,meteohub,2013-04-19 05:07:00,
2013-04-19 01:12:00,50.7,48.6,30.22,West,279,10.0,15.0,92,0.00,,,0.00,meteohub,2013-04-19 05:12:00,
2013-04-19 01:17:00,50.7,48.6,30.21,WNW,300,7.0,15.0,92,0.00,,,0.00,meteohub,2013-04-19 05:17:00,
2013-04-19 01:22:00,50.7,48.6,30.21,NW,310,7.0,15.0,92,0.00,,,0.00,meteohub,2013-04-19 05:22:00,
2013-04-19 01:27:00,50.7,48.6,30.21,WNW,287,7.0,14.0,92,0.00,,,0.00,meteohub,2013-04-19 05:27:00,
2013-04-19 01:32:00,50.9,48.9,30.20,NW,304,10.0,13.0,93,0.00,,,0.00,meteohub,2013-04-19 05:32:00,
2013-04-19 01:37:00,51.1,49.1,30.20,West,271,9.0,14.0,93,0.00,,,0.00,meteohub,2013-04-19 05:37:00,
2013-04-19 01:42:00,51.3,49.3,30.20,West,271,9.0,17.0,93,0.00,,,0.00,meteohub,2013-04-19 05:42:00,
2013-04-19 01:47:00,51.3,49.3,30.19,WNW,302,10.0,19.0,93,0.00,,,0.00,meteohub,2013-04-19 05:47:00,
2013-04-19 01:52:00,51.1,49.5,30.19,WNW,286,10.0,19.0,94,0.00,,,0.00,meteohub,2013-04-19 05:52:00,
2013-04-19 01:57:00,51.1,49.5,30.19,WNW,292,7.0,19.0,94,0.00,,,0.00,meteohub,2013-04-19 05:57:00,
2013-04-19 02:02:00,51.1,49.5,30.19,West,276,8.0,19.0,94,0.00,,,0.00,meteohub,2013-04-19 06:02:00,
2013-04-19 02:07:00,51.1,49.5,30.18,WNW,288,7.0,19.0,94,0.00,,,0.00,meteohub,2013-04-19 06:07:00,
2013-04-19 02:12:00,51.1,49.5,30.18,West,278,4.0,19.0,94,0.00,,,0.00,meteohub,2013-04-19 06:12:00,
2013-04-19 02:17:00,51.3,49.8,30.18,WNW,292,9.0,15.0,95,0.00,,,0.00,meteohub,2013-04-19 06:17:00,
2013-04-19 02:22:00,51.6,50.2,30.18,West,270,4.0,14.0,95,0.00,,,0.00,meteohub,2013-04-19 06:22:00,
2013-04-19 02:27:00,51.8,50.4,30.17,WSW,252,7.0,13.0,95,0.00,,,0.00,meteohub,2013-04-19 06:27:00,
2013-04-19 02:32:00,52.0,50.5,30.17,West,265,7.0,14.0,95,0.00,,,0.00,meteohub,2013-04-19 06:32:00,
2013-04-19 02:37:00,52.0,50.5,30.17,NW,308,6.0,14.0,95,0.00,,,0.00,meteohub,2013-04-19 06:37:00,
2013-04-19 02:42:00,52.0,50.5,30.17,WNW,294,6.0,13.0,95,0.00,,,0.00,meteohub,2013-04-19 06:42:00,
2013-04-19 02:47:00,51.8,50.4,30.17,WNW,286,10.0,13.0,95,0.00,,,0.00,meteohub,2013-04-19 06:47:00,
2013-04-19 02:52:00,51.6,50.2,30.17,West,265,5.0,13.0,95,0.00,,,0.00,meteohub,2013-04-19 06:52:00,
2013-04-19 02:57:00,51.6,50.2,30.16,NW,325,7.0,13.0,95,0.00,,,0.00,meteohub,2013-04-19 06:57:00,
2013-04-19 03:02:00,51.6,50.2,30.16,NNE,24,6.0,13.0,95,0.00,,,0.00,meteohub,2013-04-19 07:02:00,
2013-04-19 03:07:00,52.0,50.5,30.16,West,275,11.0,13.0,95,0.00,,,0.00,meteohub,2013-04-19 07:07:00,
2013-04-19 03:12:00,52.0,50.9,30.16,NW,314,5.0,12.0,96,0.00,,,0.00,meteohub,2013-04-19 07:12:00,
2013-04-19 03:17:00,52.2,51.1,30.16,WNW,286,8.0,14.0,96,0.00,,,0.00,meteohub,2013-04-19 07:17:00,
2013-04-19 03:22:00,52.2,51.1,30.15,West,268,7.0,14.0,96,0.00,,,0.00,meteohub,2013-04-19 07:22:00,
2013-04-19 03:27:00,52.3,51.3,30.16,West,270,5.0,14.0,96,0.00,,,0.00,meteohub,2013-04-19 07:27:00,
2013-04-19 03:32:00,52.5,51.4,30.15,WSW,251,5.0,14.0,96,0.00,,,0.00,meteohub,2013-04-19 07:32:00,
2013-04-19 03:37:00,52.9,51.8,30.15,West,278,10.0,11.0,96,0.00,,,0.00,meteohub,2013-04-19 07:37:00,
2013-04-19 03:42:00,53.1,52.0,30.14,West,276,11.0,13.0,96,0.00,,,0.00,meteohub,2013-04-19 07:42:00,
2013-04-19 03:47:00,53.1,52.0,30.14,West,279,6.0,14.0,96,0.00,,,0.00,meteohub,2013-04-19 07:47:00,
2013-04-19 03:52:00,53.1,52.0,30.14,WNW,292,7.0,14.0,96,0.00,,,0.00,meteohub,2013-04-19 07:52:00,
2013-04-19 03:57:00,53.1,52.0,30.14,WNW,290,11.0,14.0,96,0.00,,,0.00,meteohub,2013-04-19 07:57:00,
2013-04-19 04:02:00,53.1,52.0,30.14,WNW,288,5.0,15.0,96,0.00,,,0.00,meteohub,2013-04-19 08:02:00,
2013-04-19 04:07:00,53.1,52.0,30.13,WSW,246,11.0,15.0,96,0.00,,,0.00,meteohub,2013-04-19 08:07:00,
2013-04-19 04:12:00,52.9,51.8,30.13,West,270,6.0,14.0,96,0.00,,,0.00,meteohub,2013-04-19 08:12:00,
2013-04-19 04:17:00,52.9,51.8,30.13,NNW,329,6.0,14.0,96,0.00,,,0.00,meteohub,2013-04-19 08:17:00,
2013-04-19 04:22:00,52.7,51.6,30.13,WNW,290,9.0,13.0,96,0.00,,,0.00,meteohub,2013-04-19 08:22:00,
2013-04-19 04:27:00,52.9,51.8,30.13,NW,306,6.0,13.0,96,0.00,,,0.00,meteohub,2013-04-19 08:27:00,
2013-04-19 04:32:00,52.7,51.6,30.13,NW,304,7.0,13.0,96,0.00,,,0.00,meteohub,2013-04-19 08:32:00,
2013-04-19 04:37:00,52.5,51.4,30.13,WNW,302,6.0,15.0,96,0.00,,,0.00,meteohub,2013-04-19 08:37:00,
2013-04-19 04:42:00,52.5,51.4,30.13,NW,317,8.0,18.0,96,0.00,,,0.00,meteohub,2013-04-19 08:42:00,
2013-04-19 04:47:00,52.3,51.3,30.13,WNW,290,10.0,18.0,96,0.00,,,0.00,meteohub,2013-04-19 08:47:00,
2013-04-19 04:52:00,52.3,51.3,30.13,NW,306,6.0,18.0,96,0.00,,,0.00,meteohub,2013-04-19 08:52:00,
2013-04-19 04:57:00,52.5,51.4,30.12,WNW,288,8.0,13.0,96,0.00,,,0.00,meteohub,2013-04-19 08:57:00,
2013-04-19 05:02:00,52.9,51.8,30.12,West,277,7.0,14.0,96,0.00,,,0.00,meteohub,2013-04-19 09:02:00,
2013-04-19 05:07:00,53.1,52.2,30.12,WNW,291,7.0,14.0,97,0.00,,,0.00,meteohub,2013-04-19 09:07:00,
2013-04-19 05:12:00,53.1,52.2,30.12,WNW,286,10.0,14.0,97,0.00,,,0.00,meteohub,2013-04-19 09:12:00,
2013-04-19 05:17:00,53.2,52.3,30.12,West,261,12.0,15.0,97,0.00,,,0.00,meteohub,2013-04-19 09:17:00,
2013-04-19 05:22:00,53.4,52.5,30.12,WNW,292,12.0,15.0,97,0.00,,,0.00,meteohub,2013-04-19 09:22:00,
2013-04-19 05:27:00,53.4,52.3,30.12,NNW,329,6.0,16.0,96,0.00,,,0.00,meteohub,2013-04-19 09:27:00,
2013-04-19 05:32:00,53.6,52.5,30.12,NNW,336,9.0,16.0,96,0.00,,,0.00,meteohub,2013-04-19 09:32:00,
2013-04-19 05:37:00,53.6,52.5,30.12,WNW,292,7.0,15.0,96,0.00,,,0.00,meteohub,2013-04-19 09:37:00,
2013-04-19 05:42:00,53.8,52.9,30.12,WNW,295,7.0,15.0,97,0.00,,,0.00,meteohub,2013-04-19 09:42:00,
2013-04-19 05:47:00,53.8,52.9,30.12,WNW,293,9.0,15.0,97,0.00,,,0.00,meteohub,2013-04-19 09:47:00,
2013-04-19 05:52:00,54.0,53.1,30.12,West,279,8.0,15.0,97,0.00,,,0.00,meteohub,2013-04-19 09:52:00,
2013-04-19 05:57:00,54.3,53.4,30.12,NW,311,12.0,16.0,97,0.00,,,0.00,meteohub,2013-04-19 09:57:00,
2013-04-19 06:02:00,54.3,53.4,30.12,WNW,300,12.0,16.0,97,0.00,,,0.00,meteohub,2013-04-19 10:02:00,
2013-04-19 06:07:00,54.3,53.4,30.12,West,281,8.0,16.0,97,0.00,,,0.00,meteohub,2013-04-19 10:07:00,
2013-04-19 06:12:00,54.3,53.4,30.12,NNW,329,11.0,16.0,97,0.00,,,0.00,meteohub,2013-04-19 10:12:00,
2013-04-19 06:17:00,54.3,53.4,30.12,West,279,9.0,16.0,97,0.00,,,0.00,meteohub,2013-04-19 10:17:00,
2013-04-19 06:22:00,54.3,53.4,30.12,WNW,282,7.0,14.0,97,0.00,,,0.00,meteohub,2013-04-19 10:22:00,
2013-04-19 06:27:00,54.3,53.4,30.12,NW,306,8.0,14.0,97,0.00,,,0.00,meteohub,2013-04-19 10:27:00,
2013-04-19 06:32:00,54.3,53.4,30.12,WSW,254,7.0,13.0,97,0.00,,,0.00,meteohub,2013-04-19 10:32:00,
2013-04-19 06:37:00,54.1,53.2,30.12,NW,304,6.0,13.0,97,0.00,,,0.00,meteohub,2013-04-19 10:37:00,
2013-04-19 06:42:00,54.1,53.2,30.12,NW,317,4.0,13.0,97,0.00,,,0.00,meteohub,2013-04-19 10:42:00,
2013-04-19 06:47:00,54.1,53.2,30.12,WNW,294,12.0,14.0,97,0.00,,,0.00,meteohub,2013-04-19 10:47:00,
2013-04-19 06:52:00,54.1,53.2,30.12,WNW,303,7.0,16.0,97,0.00,,,0.00,meteohub,2013-04-19 10:52:00,
2013-04-19 06:57:00,54.3,53.4,30.12,West,281,8.0,16.0,97,0.00,,,0.00,meteohub,2013-04-19 10:57:00,
2013-04-19 07:02:00,54.3,53.4,30.12,West,281,9.0,14.0,97,0.00,,,0.00,meteohub,2013-04-19 11:02:00,
2013-04-19 07:07:00,54.7,53.8,30.11,WNW,303,5.0,14.0,97,0.00,,,0.00,meteohub,2013-04-19 11:07:00,
2013-04-19 07:12:00,54.9,54.0,30.11,WNW,294,7.0,14.0,97,0.00,,,0.00,meteohub,2013-04-19 11:12:00,
2013-04-19 07:17:00,54.9,54.0,30.11,WNW,292,6.0,14.0,97,0.00,,,0.00,meteohub,2013-04-19 11:17:00,
2013-04-19 07:22:00,55.0,54.1,30.11,West,279,7.0,14.0,97,0.00,,,0.00,meteohub,2013-04-19 11:22:00,
2013-04-19 07:27:00,55.0,54.1,30.11,NW,313,12.0,14.0,97,0.00,,,0.00,meteohub,2013-04-19 11:27:00,
2013-04-19 07:32:00,55.2,54.3,30.11,NW,317,5.0,17.0,97,0.00,,,0.00,meteohub,2013-04-19 11:32:00,
2013-04-19 07:37:00,55.0,54.1,30.11,West,260,4.0,17.0,97,0.00,,,0.00,meteohub,2013-04-19 11:37:00,
2013-04-19 07:42:00,54.9,54.0,30.10,West,271,6.0,17.0,97,0.00,,,0.00,meteohub,2013-04-19 11:42:00,
2013-04-19 07:47:00,54.9,54.0,30.11,West,273,7.0,14.0,97,0.00,,,0.00,meteohub,2013-04-19 11:47:00,
2013-04-19 07:52:00,54.7,53.8,30.10,WNW,290,9.0,13.0,97,0.00,,,0.00,meteohub,2013-04-19 11:52:00,
2013-04-19 07:57:00,54.9,54.0,30.10,WNW,296,7.0,13.0,97,0.00,,,0.00,meteohub,2013-04-19 11:57:00,
2013-04-19 08:02:00,54.9,54.0,30.10,WNW,296,10.0,15.0,97,0.00,,,0.00,meteohub,2013-04-19 12:02:00,
2013-04-19 08:07:00,55.0,54.1,30.10,NW,319,8.0,15.0,97,0.00,,,0.00,meteohub,2013-04-19 12:07:00,
2013-04-19 08:12:00,54.9,54.0,30.10,West,273,7.0,13.0,97,0.00,,,0.00,meteohub,2013-04-19 12:12:00,
2013-04-19 08:17:00,54.9,54.0,30.10,WNW,288,8.0,17.0,97,0.00,,,0.00,meteohub,2013-04-19 12:17:00,
2013-04-19 08:22:00,55.0,54.1,30.09,WNW,297,7.0,17.0,97,0.00,,,0.00,meteohub,2013-04-19 12:22:00,
2013-04-19 08:27:00,55.4,54.9,30.09,NW,308,9.0,13.0,98,0.00,,,0.00,meteohub,2013-04-19 12:27:00,
2013-04-19 08:32:00,55.9,55.4,30.09,West,271,8.0,14.0,98,0.00,,,0.00,meteohub,2013-04-19 12:32:00,
2013-04-19 08:37:00,56.1,55.6,30.09,NW,313,14.0,14.0,98,0.00,,,0.00,meteohub,2013-04-19 12:37:00,
2013-04-19 08:42:00,55.9,55.4,30.09,NNW,327,5.0,17.0,98,0.00,,,0.00,meteohub,2013-04-19 12:42:00,
2013-04-19 08:47:00,55.9,55.4,30.09,NW,311,6.0,17.0,98,0.00,,,0.00,meteohub,2013-04-19 12:47:00,
2013-04-19 08:52:00,55.6,54.7,30.09,WNW,290,10.0,17.0,97,0.00,,,0.00,meteohub,2013-04-19 12:52:00,
2013-04-19 08:57:00,55.6,54.7,30.09,WSW,252,8.0,14.0,97,0.00,,,0.00,meteohub,2013-04-19 12:57:00,
2013-04-19 09:02:00,55.6,54.7,30.09,West,277,8.0,14.0,97,0.00,,,0.00,meteohub,2013-04-19 13:02:00,
2013-04-19 09:07:00,55.6,55.0,30.09,NW,313,7.0,14.0,98,0.00,,,0.00,meteohub,2013-04-19 13:07:00,
2013-04-19 09:12:00,55.4,54.9,30.09,NW,323,10.0,14.0,98,0.00,,,0.00,meteohub,2013-04-19 13:12:00,
2013-04-19 09:17:00,55.4,54.9,30.09,NW,309,8.0,13.0,98,0.00,,,0.00,meteohub,2013-04-19 13:17:00,
2013-04-19 09:22:00,55.6,55.0,30.09,WNW,288,4.0,13.0,98,0.00,,,0.00,meteohub,2013-04-19 13:22:00,
2013-04-19 09:27:00,55.8,55.2,30.09,West,277,8.0,13.0,98,0.00,,,0.00,meteohub,2013-04-19 13:27:00,
2013-04-19 09:32:00,55.9,55.4,30.09,West,277,8.0,16.0,98,0.00,,,0.00,meteohub,2013-04-19 13:32:00,
2013-04-19 09:37:00,55.9,55.4,30.09,WSW,254,5.0,16.0,98,0.00,,,0.00,meteohub,2013-04-19 13:37:00,
2013-04-19 09:42:00,56.1,55.6,30.09,NW,311,8.0,14.0,98,0.00,,,0.00,meteohub,2013-04-19 13:42:00,
2013-04-19 09:47:00,56.1,55.6,30.09,NW,318,6.0,12.0,98,0.00,,,0.00,meteohub,2013-04-19 13:47:00,
2013-04-19 09:52:00,56.1,55.6,30.09,West,275,5.0,12.0,98,0.00,,,0.00,meteohub,2013-04-19 13:52:00,
2013-04-19 09:57:00,56.3,55.8,30.08,West,265,4.0,12.0,98,0.00,,,0.00,meteohub,2013-04-19 13:57:00,
2013-04-19 10:02:00,56.5,55.9,30.08,NW,323,3.0,12.0,98,0.00,,,0.00,meteohub,2013-04-19 14:02:00,
2013-04-19 10:07:00,56.7,56.1,30.08,NW,318,7.0,12.0,98,0.00,,,0.00,meteohub,2013-04-19 14:07:00,
2013-04-19 10:12:00,57.2,56.7,30.08,West,266,6.0,11.0,98,0.00,,,0.00,meteohub,2013-04-19 14:12:00,
2013-04-19 10:17:00,57.6,57.0,30.08,WSW,249,7.0,11.0,98,0.00,,,0.00,meteohub,2013-04-19 14:17:00,
2013-04-19 10:22:00,57.7,57.2,30.08,WNW,296,8.0,11.0,98,0.00,,,0.00,meteohub,2013-04-19 14:22:00,
2013-04-19 10:27:00,57.9,57.4,30.07,West,267,7.0,13.0,98,0.00,,,0.00,meteohub,2013-04-19 14:27:00,
2013-04-19 10:32:00,57.9,57.4,30.07,WNW,297,7.0,13.0,98,0.00,,,0.00,meteohub,2013-04-19 14:32:00,
2013-04-19 10:37:00,57.9,57.4,30.07,WNW,294,5.0,11.0,98,0.00,,,0.00,meteohub,2013-04-19 14:37:00,
2013-04-19 10:42:00,57.9,57.4,30.07,WNW,301,9.0,15.0,98,0.00,,,0.00,meteohub,2013-04-19 14:42:00,
2013-04-19 10:47:00,57.9,57.4,30.07,West,281,7.0,15.0,98,0.00,,,0.00,meteohub,2013-04-19 14:47:00,
2013-04-19 10:52:00,58.1,57.6,30.07,WNW,291,9.0,15.0,98,0.00,,,0.00,meteohub,2013-04-19 14:52:00,
2013-04-19 10:57:00,58.5,57.9,30.06,NW,311,5.0,15.0,98,0.00,,,0.00,meteohub,2013-04-19 14:57:00,
2013-04-19 11:02:00,59.4,58.8,30.06,West,275,7.0,13.0,98,0.00,,,0.00,meteohub,2013-04-19 15:02:00,
2013-04-19 11:07:00,60.3,59.7,30.06,WNW,288,4.0,13.0,98,0.00,,,0.00,meteohub,2013-04-19 15:07:00,
2013-04-19 11:12:00,61.2,60.6,30.06,West,259,6.0,13.0,98,0.00,,,0.00,meteohub,2013-04-19 15:12:00,
2013-04-19 11:17:00,61.5,61.0,30.06,WSW,242,9.0,14.0,98,0.00,,,0.00,meteohub,2013-04-19 15:17:00,
2013-04-19 11:22:00,62.2,61.3,30.05,WNW,302,10.0,15.0,97,0.00,,,0.00,meteohub,2013-04-19 15:22:00,
2013-04-19 11:27:00,63.0,61.5,30.05,West,273,7.0,15.0,95,0.00,,,0.00,meteohub,2013-04-19 15:27:00,
2013-04-19 11:32:00,63.1,61.3,30.05,WNW,289,12.0,16.0,94,0.00,,,0.00,meteohub,2013-04-19 15:32:00,
2013-04-19 11:37:00,63.1,60.8,30.05,WNW,303,15.0,16.0,92,0.00,,,0.00,meteohub,2013-04-19 15:37:00,
2013-04-19 11:42:00,62.1,59.7,30.05,WNW,300,7.0,19.0,92,0.00,,,0.00,meteohub,2013-04-19 15:42:00,
2013-04-19 11:47:00,61.3,59.0,30.05,West,275,8.0,19.0,92,0.00,,,0.00,meteohub,2013-04-19 15:47:00,
2013-04-19 11:52:00,61.2,59.2,30.05,West,267,8.0,19.0,93,0.00,,,0.00,meteohub,2013-04-19 15:52:00,
2013-04-19 11:57:00,61.2,59.2,30.04,West,281,7.0,18.0,93,0.00,,,0.00,meteohub,2013-04-19 15:57:00,
2013-04-19 12:02:00,61.5,59.5,30.04,NNW,327,5.0,18.0,93,0.00,,,0.00,meteohub,2013-04-19 16:02:00,
2013-04-19 12:07:00,61.9,59.9,30.04,West,276,6.0,15.0,93,0.00,,,0.00,meteohub,2013-04-19 16:07:00,
2013-04-19 12:12:00,61.9,59.2,30.03,West,261,5.0,14.0,91,0.00,,,0.00,meteohub,2013-04-19 16:12:00,
2013-04-19 12:17:00,62.1,59.4,30.04,NNW,338,9.0,17.0,91,0.00,,,0.00,meteohub,2013-04-19 16:17:00,
2013-04-19 12:22:00,61.9,59.0,30.04,NNW,327,11.0,17.0,90,0.00,,,0.00,meteohub,2013-04-19 16:22:00,
2013-04-19 12:27:00,61.7,58.8,30.03,WNW,286,7.0,17.0,90,0.00,,,0.00,meteohub,2013-04-19 16:27:00,
2013-04-19 12:32:00,62.2,59.2,30.03,WNW,297,11.0,16.0,90,0.00,,,0.00,meteohub,2013-04-19 16:32:00,
2013-04-19 12:37:00,62.8,59.2,30.03,West,271,8.0,16.0,88,0.00,,,0.00,meteohub,2013-04-19 16:37:00,
2013-04-19 12:42:00,62.8,59.2,30.03,NW,317,8.0,15.0,88,0.00,,,0.00,meteohub,2013-04-19 16:42:00,
2013-04-19 12:47:00,62.6,59.0,30.02,WNW,285,8.0,17.0,88,0.00,,,0.00,meteohub,2013-04-19 16:47:00,
2013-04-19 12:52:00,62.6,59.4,30.02,NW,307,12.0,17.0,89,0.00,,,0.00,meteohub,2013-04-19 16:52:00,
2013-04-19 12:57:00,62.4,59.4,30.02,NW,309,9.0,17.0,90,0.00,,,0.00,meteohub,2013-04-19 16:57:00,
2013-04-19 13:02:00,63.1,60.1,30.02,West,262,9.0,17.0,90,0.00,,,0.00,meteohub,2013-04-19 17:02:00,
2013-04-19 13:07:00,63.7,60.4,30.01,WNW,288,5.0,16.0,89,0.00,,,0.00,meteohub,2013-04-19 17:07:00,
2013-04-19 13:12:00,63.9,60.6,30.01,WSW,240,13.0,16.0,89,0.00,,,0.00,meteohub,2013-04-19 17:12:00,
2013-04-19 13:17:00,64.2,60.6,30.01,West,263,11.0,18.0,88,0.00,,,0.00,meteohub,2013-04-19 17:17:00,
2013-04-19 13:22:00,63.7,60.1,30.01,WNW,284,13.0,20.0,88,0.00,,,0.00,meteohub,2013-04-19 17:22:00,
2013-04-19 13:27:00,63.9,60.6,30.01,West,259,7.0,20.0,89,0.00,,,0.00,meteohub,2013-04-19 17:27:00,
2013-04-19 13:32:00,64.0,60.4,30.00,West,278,11.0,20.0,88,0.00,,,0.00,meteohub,2013-04-19 17:32:00,
2013-04-19 13:37:00,64.2,60.6,30.00,NW,309,16.0,17.0,88,0.00,,,0.00,meteohub,2013-04-19 17:37:00,
2013-04-19 13:42:00,64.2,60.6,30.00,WNW,292,12.0,18.0,88,0.00,,,0.00,meteohub,2013-04-19 17:42:00,
2013-04-19 13:47:00,64.2,60.6,30.00,West,266,10.0,18.0,88,0.00,,,0.00,meteohub,2013-04-19 17:47:00,
2013-04-19 13:52:00,64.0,60.4,29.99,WNW,302,10.0,18.0,88,0.00,,,0.00,meteohub,2013-04-19 17:52:00,
2013-04-19 13:57:00,64.4,60.8,29.99,NW,318,13.0,18.0,88,0.00,,,0.00,meteohub,2013-04-19 17:57:00,
2013-04-19 14:02:00,64.0,60.4,29.99,WSW,238,13.0,17.0,88,0.00,,,0.00,meteohub,2013-04-19 18:02:00,
2013-04-19 14:07:00,64.0,60.8,29.98,NNW,331,11.0,17.0,89,0.00,,,0.00,meteohub,2013-04-19 18:07:00,
2013-04-19 14:12:00,63.7,60.4,29.98,WNW,301,11.0,17.0,89,0.00,,,0.00,meteohub,2013-04-19 18:12:00,
2013-04-19 14:17:00,63.1,60.1,29.98,WNW,296,6.0,22.0,90,0.00,,,0.00,meteohub,2013-04-19 18:17:00,
2013-04-19 14:22:00,63.0,60.3,29.98,NNW,333,17.0,22.0,91,0.00,,,0.00,meteohub,2013-04-19 18:22:00,
2013-04-19 14:27:00,63.1,60.4,29.98,NW,317,10.0,22.0,91,0.00,,,0.00,meteohub,2013-04-19 18:27:00,
2013-04-19 14:32:00,63.1,60.1,29.97,West,279,14.0,22.0,90,0.00,,,0.00,meteohub,2013-04-19 18:32:00,
2013-04-19 14:37:00,63.9,60.8,29.97,NW,309,12.0,22.0,90,0.00,,,0.00,meteohub,2013-04-19 18:37:00,
2013-04-19 14:42:00,63.7,60.1,29.97,WNW,294,17.0,22.0,88,0.00,,,0.00,meteohub,2013-04-19 18:42:00,
2013-04-19 14:47:00,63.0,59.4,29.97,West,281,7.0,18.0,88,0.00,,,0.00,meteohub,2013-04-19 18:47:00,
2013-04-19 14:52:00,63.0,59.7,29.97,WNW,283,7.0,18.0,89,0.00,,,0.00,meteohub,2013-04-19 18:52:00,
2013-04-19 14:57:00,62.8,59.5,29.97,West,280,11.0,17.0,89,0.00,,,0.00,meteohub,2013-04-19 18:57:00,
2013-04-19 15:02:00,62.6,59.4,29.96,West,273,6.0,19.0,89,0.00,,,0.00,meteohub,2013-04-19 19:02:00,
2013-04-19 15:07:00,62.8,59.2,29.96,West,275,9.0,19.0,88,0.00,,,0.00,meteohub,2013-04-19 19:07:00,
2013-04-19 15:12:00,62.6,59.4,29.96,NW,319,8.0,18.0,89,0.00,,,0.00,meteohub,2013-04-19 19:12:00,
2013-04-19 15:17:00,62.4,58.8,29.96,SW,236,8.0,17.0,88,0.00,,,0.00,meteohub,2013-04-19 19:17:00,
2013-04-19 15:22:00,63.1,59.5,29.96,West,265,10.0,15.0,88,0.00,,,0.00,meteohub,2013-04-19 19:22:00,
2013-04-19 15:27:00,63.7,60.1,29.96,West,273,9.0,19.0,88,0.00,,,0.00,meteohub,2013-04-19 19:27:00,
2013-04-19 15:32:00,63.7,59.7,29.95,WNW,296,7.0,20.0,87,0.00,,,0.00,meteohub,2013-04-19 19:32:00,
2013-04-19 15:37:00,63.3,59.4,29.95,NW,325,12.0,20.0,87,0.00,,,0.00,meteohub,2013-04-19 19:37:00,
2013-04-19 15:42:00,63.0,59.4,29.95,WSW,242,11.0,20.0,88,0.00,,,0.00,meteohub,2013-04-19 19:42:00,
2013-04-19 15:47:00,63.0,59.4,29.94,WSW,250,9.0,20.0,88,0.00,,,0.00,meteohub,2013-04-19 19:47:00,
2013-04-19 15:52:00,62.4,58.5,29.94,WNW,283,11.0,20.0,87,0.00,,,0.00,meteohub,2013-04-19 19:52:00,
2013-04-19 15:57:00,61.9,58.3,29.94,West,281,11.0,22.0,88,0.00,,,0.00,meteohub,2013-04-19 19:57:00,
2013-04-19 16:02:00,61.3,58.1,29.94,NW,320,18.0,22.0,89,0.00,,,0.00,meteohub,2013-04-19 20:02:00,
2013-04-19 16:07:00,61.3,58.5,29.94,WNW,296,15.0,23.0,90,0.00,,,0.00,meteohub,2013-04-19 20:07:00,
2013-04-19 16:12:00,61.3,58.5,29.93,NW,310,17.0,23.0,90,0.00,,,0.00,meteohub,2013-04-19 20:12:00,
2013-04-19 16:17:00,61.2,58.3,29.93,WNW,292,9.0,23.0,90,0.00,,,0.00,meteohub,2013-04-19 20:17:00,
2013-04-19 16:22:00,61.0,58.1,29.93,NNW,333,10.0,21.0,90,0.00,,,0.00,meteohub,2013-04-19 20:22:00,
2013-04-19 16:27:00,60.8,58.1,29.93,NW,323,4.0,21.0,91,0.00,,,0.00,meteohub,2013-04-19 20:27:00,
2013-04-19 16:32:00,60.6,57.9,29.92,West,277,10.0,18.0,91,0.00,,,0.00,meteohub,2013-04-19 20:32:00,
2013-04-19 16:37:00,60.8,58.1,29.92,NW,313,11.0,17.0,91,0.00,,,0.00,meteohub,2013-04-19 20:37:00,
2013-04-19 16:42:00,61.0,58.3,29.92,WNW,288,12.0,17.0,91,0.00,,,0.00,meteohub,2013-04-19 20:42:00,
2013-04-19 16:47:00,61.0,58.3,29.92,WNW,298,11.0,18.0,91,0.00,,,0.00,meteohub,2013-04-19 20:47:00,
2013-04-19 16:52:00,60.8,58.1,29.91,WNW,296,13.0,19.0,91,0.00,,,0.00,meteohub,2013-04-19 20:52:00,
2013-04-19 16:57:00,60.6,57.9,29.92,NW,315,9.0,19.0,91,0.00,,,0.00,meteohub,2013-04-19 20:57:00,
2013-04-19 17:02:00,60.6,57.9,29.92,WNW,282,7.0,19.0,91,0.00,,,0.00,meteohub,2013-04-19 21:02:00,
2013-04-19 17:07:00,60.4,57.7,29.92,WNW,293,10.0,19.0,91,0.00,,,0.00,meteohub,2013-04-19 21:07:00,
2013-04-19 17:12:00,60.3,57.9,29.92,NW,308,7.0,18.0,92,0.00,,,0.00,meteohub,2013-04-19 21:12:00,
2013-04-19 17:17:00,60.3,57.9,29.92,WNW,294,9.0,19.0,92,0.00,,,0.00,meteohub,2013-04-19 21:17:00,
2013-04-19 17:22:00,60.3,57.9,29.91,WNW,289,17.0,19.0,92,0.00,,,0.00,meteohub,2013-04-19 21:22:00,
2013-04-19 17:27:00,60.3,57.9,29.91,WNW,290,7.0,19.0,92,0.00,,,0.00,meteohub,2013-04-19 21:27:00,
2013-04-19 17:32:00,59.7,57.4,29.91,West,280,12.0,19.0,92,0.00,,,0.00,meteohub,2013-04-19 21:32:00,
2013-04-19 17:37:00,59.4,57.0,29.91,WNW,303,5.0,20.0,92,0.00,,,0.00,meteohub,2013-04-19 21:37:00,
2013-04-19 17:42:00,58.8,56.5,29.91,WSW,249,10.0,20.0,92,0.00,,,0.00,meteohub,2013-04-19 21:42:00,
2013-04-19 17:47:00,58.3,55.9,29.91,West,265,5.0,17.0,92,0.00,,,0.00,meteohub,2013-04-19 21:47:00,
2013-04-19 17:52:00,57.9,55.9,29.91,West,272,9.0,14.0,93,0.00,,,0.00,meteohub,2013-04-19 21:52:00,
2013-04-19 17:57:00,57.6,55.6,29.90,WNW,291,9.0,14.0,93,0.00,,,0.00,meteohub,2013-04-19 21:57:00,
2013-04-19 18:02:00,57.4,55.6,29.91,West,259,7.0,15.0,94,0.00,,,0.00,meteohub,2013-04-19 22:02:00,
2013-04-19 18:07:00,57.2,55.4,29.90,WNW,287,7.0,15.0,94,0.00,,,0.00,meteohub,2013-04-19 22:07:00,
2013-04-19 18:12:00,57.2,55.4,29.90,NW,310,6.0,17.0,94,0.00,,,0.00,meteohub,2013-04-19 22:12:00,
2013-04-19 18:17:00,57.2,55.4,29.90,WNW,296,7.0,17.0,94,0.00,,,0.00,meteohub,2013-04-19 22:17:00,
2013-04-19 18:22:00,57.4,55.9,29.90,West,271,14.0,16.0,95,0.00,,,0.00,meteohub,2013-04-19 22:22:00,
2013-04-19 18:27:00,57.4,55.9,29.90,West,271,15.0,17.0,95,0.00,,,0.00,meteohub,2013-04-19 22:27:00,
2013-04-19 18:32:00,57.6,56.1,29.89,West,274,11.0,19.0,95,0.00,,,0.00,meteohub,2013-04-19 22:32:00,
2013-04-19 18:37:00,57.6,56.1,29.89,West,261,10.0,19.0,95,0.00,,,0.00,meteohub,2013-04-19 22:37:00,
2013-04-19 18:42:00,57.7,56.3,29.89,West,269,9.0,22.0,95,0.00,,,0.00,meteohub,2013-04-19 22:42:00,
2013-04-19 18:47:00,57.9,56.8,29.89,NW,304,10.0,22.0,96,0.00,,,0.00,meteohub,2013-04-19 22:47:00,
2013-04-19 18:52:00,57.9,56.8,29.89,WSW,249,8.0,22.0,96,0.00,,,0.00,meteohub,2013-04-19 22:52:00,
2013-04-19 18:57:00,57.7,56.3,29.89,WSW,256,9.0,19.0,95,0.00,,,0.00,meteohub,2013-04-19 22:57:00,
2013-04-19 19:02:00,57.6,56.1,29.89,WNW,285,10.0,19.0,95,0.00,,,0.00,meteohub,2013-04-19 23:02:00,
2013-04-19 19:07:00,57.6,56.1,29.89,WNW,284,10.0,18.0,95,0.00,,,0.00,meteohub,2013-04-19 23:07:00,
2013-04-19 19:12:00,57.6,56.1,29.89,West,259,11.0,16.0,95,0.00,,,0.00,meteohub,2013-04-19 23:12:00,
2013-04-19 19:17:00,57.4,56.3,29.89,WSW,239,11.0,16.0,96,0.00,,,0.00,meteohub,2013-04-19 23:17:00,
2013-04-19 19:22:00,57.4,56.3,29.89,WNW,283,12.0,21.0,96,0.00,,,0.00,meteohub,2013-04-19 23:22:00,
2013-04-19 19:27:00,57.0,55.9,29.89,West,272,18.0,21.0,96,0.00,,,0.00,meteohub,2013-04-19 23:27:00,
2013-04-19 19:32:00,56.8,55.8,29.89,NW,312,17.0,21.0,96,0.00,,,0.00,meteohub,2013-04-19 23:32:00,
2013-04-19 19:37:00,56.7,55.6,29.89,West,279,11.0,19.0,96,0.00,,,0.00,meteohub,2013-04-19 23:37:00,
2013-04-19 19:42:00,56.7,55.6,29.89,West,267,11.0,19.0,96,0.00,,,0.00,meteohub,2013-04-19 23:42:00,
2013-04-19 19:47:00,56.5,55.4,29.89,WNW,290,6.0,19.0,96,0.00,,,0.00,meteohub,2013-04-19 23:47:00,
2013-04-19 19:52:00,56.7,55.6,29.89,West,272,8.0,19.0,96,0.00,,,0.00,meteohub,2013-04-19 23:52:00,
2013-04-19 19:57:00,56.8,55.8,29.89,WNW,290,11.0,17.0,96,0.00,,,0.00,meteohub,2013-04-19 23:57:00,
2013-04-19 20:02:00,57.0,55.9,29.89,WNW,294,14.0,18.0,96,0.00,,,0.00,meteohub,2013-04-20 00:02:00,
2013-04-19 20:07:00,57.0,55.9,29.89,West,267,13.0,21.0,96,0.00,,,0.00,meteohub,2013-04-20 00:07:00,
2013-04-19 20:12:00,57.0,55.9,29.89,West,280,14.0,21.0,96,0.00,,,0.00,meteohub,2013-04-20 00:12:00,
2013-04-19 20:17:00,56.8,55.8,29.89,WNW,283,19.0,22.0,96,0.00,,,0.00,meteohub,2013-04-20 00:17:00,
2013-04-19 20:22:00,56.8,55.8,29.89,WNW,290,14.0,22.0,96,0.00,,,0.00,meteohub,2013-04-20 00:22:00,
2013-04-19 20:27:00,56.7,55.8,29.89,WNW,286,16.0,22.0,97,0.00,,,0.00,meteohub,2013-04-20 00:27:00,
2013-04-19 20:32:00,56.7,55.6,29.89,West,276,10.0,20.0,96,0.00,,,0.00,meteohub,2013-04-20 00:32:00,
2013-04-19 20:37:00,56.8,55.9,29.88,West,264,12.0,22.0,97,0.00,,,0.00,meteohub,2013-04-20 00:37:00,
2013-04-19 20:42:00,57.0,56.1,29.89,West,265,12.0,22.0,97,0.00,,,0.00,meteohub,2013-04-20 00:42:00,
2013-04-19 20:47:00,57.4,56.5,29.88,WNW,288,6.0,19.0,97,0.00,,,0.00,meteohub,2013-04-20 00:47:00,
2013-04-19 20:52:00,57.4,56.5,29.88,WSW,246,12.0,19.0,97,0.00,,,0.00,meteohub,2013-04-20 00:52:00,
2013-04-19 20:57:00,57.4,56.5,29.88,West,266,10.0,19.0,97,0.00,,,0.00,meteohub,2013-04-20 00:57:00,
2013-04-19 21:02:00,57.4,56.5,29.88,West,262,9.0,17.0,97,0.00,,,0.00,meteohub,2013-04-20 01:02:00,
2013-04-19 21:07:00,57.4,56.5,29.89,West,274,9.0,17.0,97,0.00,,,0.00,meteohub,2013-04-20 01:07:00,
2013-04-19 21:12:00,57.4,56.5,29.88,WNW,302,10.0,19.0,97,0.00,,,0.00,meteohub,2013-04-20 01:12:00,
2013-04-19 21:17:00,57.7,56.8,29.88,WNW,296,9.0,21.0,97,0.00,,,0.00,meteohub,2013-04-20 01:17:00,
2013-04-19 21:22:00,57.7,56.8,29.88,West,277,9.0,23.0,97,0.00,,,0.00,meteohub,2013-04-20 01:22:00,
2013-04-19 21:27:00,57.9,57.0,29.87,West,279,12.0,23.0,97,0.00,,,0.00,meteohub,2013-04-20 01:27:00,
2013-04-19 21:32:00,58.1,57.2,29.87,NNW,329,13.0,26.0,97,0.00,,,0.00,meteohub,2013-04-20 01:32:00,
2013-04-19 21:37:00,58.1,57.2,29.87,WNW,291,15.0,26.0,97,0.00,,,0.00,meteohub,2013-04-20 01:37:00,
2013-04-19 21:42:00,58.3,57.4,29.87,WNW,293,17.0,23.0,97,0.00,,,0.00,meteohub,2013-04-20 01:42:00,
2013-04-19 21:47:00,58.3,57.4,29.86,WNW,303,13.0,23.0,97,0.00,,,0.00,meteohub,2013-04-20 01:47:00,
2013-04-19 21:52:00,58.5,57.6,29.86,West,273,17.0,21.0,97,0.00,,,0.00,meteohub,2013-04-20 01:52:00,
2013-04-19 21:57:00,58.6,57.7,29.86,NW,313,13.0,21.0,97,0.00,,,0.00,meteohub,2013-04-20 01:57:00,
2013-04-19 22:02:00,58.5,57.6,29.86,West,272,10.0,27.0,97,0.00,,,0.00,meteohub,2013-04-20 02:02:00,
2013-04-19 22:07:00,58.3,57.4,29.86,West,281,16.0,27.0,97,0.00,,,0.00,meteohub,2013-04-20 02:07:00,
2013-04-19 22:12:00,58.3,57.4,29.86,NW,308,15.0,24.0,97,0.00,,,0.00,meteohub,2013-04-20 02:12:00,
2013-04-19 22:17:00,58.1,57.2,29.86,NW,313,14.0,24.0,97,0.00,,,0.00,meteohub,2013-04-20 02:17:00,
2013-04-19 22:22:00,57.9,57.0,29.86,West,280,9.0,24.0,97,0.00,,,0.00,meteohub,2013-04-20 02:22:00,
2013-04-19 22:27:00,58.3,57.4,29.86,West,278,10.0,23.0,97,0.00,,,0.00,meteohub,2013-04-20 02:27:00,
2013-04-19 22:32:00,58.3,57.4,29.86,WNW,302,13.0,23.0,97,0.00,,,0.00,meteohub,2013-04-20 02:32:00,
2013-04-19 22:37:00,58.5,57.6,29.86,NNW,331,9.0,19.0,97,0.00,,,0.00,meteohub,2013-04-20 02:37:00,
2013-04-19 22:42:00,58.5,57.6,29.86,West,259,8.0,18.0,97,0.00,,,0.00,meteohub,2013-04-20 02:42:00,
2013-04-19 22:47:00,58.5,57.6,29.86,West,271,8.0,21.0,97,0.00,,,0.00,meteohub,2013-04-20 02:47:00,
2013-04-19 22:52:00,58.6,57.7,29.85,West,271,11.0,21.0,97,0.00,,,0.00,meteohub,2013-04-20 02:52:00,
2013-04-19 22:57:00,59.2,58.3,29.85,NNW,340,6.0,21.0,97,0.00,,,0.00,meteohub,2013-04-20 02:57:00,
2013-04-19 23:02:00,59.4,58.5,29.84,WSW,250,10.0,16.0,97,0.00,,,0.00,meteohub,2013-04-20 03:02:00,
2013-04-19 23:07:00,59.5,58.6,29.84,West,281,11.0,18.0,97,0.00,,,0.00,meteohub,2013-04-20 03:07:00,
2013-04-19 23:12:00,59.7,58.8,29.84,NW,306,11.0,18.0,97,0.00,,,0.00,meteohub,2013-04-20 03:12:00,
2013-04-19 23:17:00,59.7,58.8,29.84,WSW,253,12.0,18.0,97,0.00,,,0.00,meteohub,2013-04-20 03:17:00,
2013-04-19 23:22:00,60.1,59.2,29.84,NW,304,7.0,23.0,97,0.00,,,0.00,meteohub,2013-04-20 03:22:00,
2013-04-19 23:27:00,60.1,59.2,29.83,NW,313,9.0,23.0,97,0.00,,,0.00,meteohub,2013-04-20 03:27:00,
2013-04-19 23:32:00,60.3,59.4,29.83,NW,313,9.0,23.0,97,0.00,,,0.00,meteohub,2013-04-20 03:32:00,
2013-04-19 23:37:00,60.3,59.4,29.83,WSW,252,17.0,17.0,97,0.00,,,0.00,meteohub,2013-04-20 03:37:00,
2013-04-19 23:42:00,60.4,59.5,29.83,WNW,285,9.0,20.0,97,0.00,,,0.00,meteohub,2013-04-20 03:42:00,
2013-04-19 23:47:00,60.3,59.4,29.83,WNW,294,12.0,21.0,97,0.00,,,0.00,meteohub,2013-04-20 03:47:00,
2013-04-19 23:52:00,60.1,59.2,29.83,WNW,296,12.0,26.0,97,0.00,,,0.00,meteohub,2013-04-20 03:52:00,
2013-04-19 23:57:00,59.9,59.0,29.83,WNW,301,7.0,26.0,97,0.00,,,0.00,meteohub,2013-04-20 03:57:00,